.
WxDataArchive / Data Records for 2013-01-10
2013-01-09 January 2013 2013-01-11

Data Records for Thursday, 10 January 2013

Time	Temp	Chill	HIndex	Humid	Dewpt	 Wind 	HiWind	WindDir	Rain 	Barom 
-----	----	-----	------	-----	-----	------	------	-------	-----	----- 
00:00	28.4	28.4	28.4	86	24.8	0	0	---	0.00	30.519 
00:05	28.5	28.5	28.5	86	24.9	0	0	---	0.00	30.519 
00:10	28.4	28.4	28.4	86	24.8	0	0	---	0.00	30.519 
00:15	28.4	28.4	28.4	86	24.8	0	0	---	0.00	30.523 
00:20	28.2	28.2	28.2	86	24.6	0	0	---	0.00	30.523 
00:25	28.1	28.1	28.1	86	24.5	0	0	---	0.00	30.523 
00:30	27.9	27.9	27.9	86	24.3	0	0	---	0.00	30.523 
00:35	27.6	27.6	27.6	86	24.0	0	0	---	0.00	30.523 
00:40	27.5	27.5	27.5	86	23.9	0	0	---	0.00	30.523 
00:45	27.3	27.3	27.3	86	23.7	0	0	---	0.00	30.537 
00:50	27.3	27.3	27.3	86	23.7	0	0	---	0.00	30.537 
00:55	27.2	27.2	27.2	86	23.6	0	0	---	0.00	30.537 
01:00	27.0	27.0	27.0	86	23.4	0	0	---	0.00	30.540 
01:05	26.9	26.9	26.9	86	23.3	0	0	---	0.00	30.540 
01:10	26.6	26.6	26.6	86	23.0	0	0	---	0.00	30.540 
01:15	26.4	26.4	26.4	86	22.8	0	0	---	0.00	30.538 
01:20	26.1	26.1	26.1	86	22.5	0	0	---	0.00	30.538 
01:25	26.0	26.0	26.0	86	22.4	0	0	---	0.00	30.538 
01:30	25.8	25.8	25.8	87	22.5	0	0	---	0.00	30.540 
01:35	25.7	25.7	25.7	87	22.4	0	0	---	0.00	30.540 
01:40	25.6	25.6	25.6	87	22.3	0	0	---	0.00	30.540 
01:45	25.6	25.6	25.6	87	22.3	0	0	---	0.00	30.547 
01:50	25.4	25.4	25.4	87	22.1	0	0	---	0.00	30.547 
01:55	25.3	25.3	25.3	87	22.0	0	0	---	0.00	30.547 
02:00	25.1	25.1	25.1	87	21.8	0	0	---	0.00	30.540 
02:05	25.0	25.0	25.0	87	21.7	0	0	---	0.00	30.540 
02:10	25.0	25.0	25.0	87	21.7	0	0	---	0.00	30.540 
02:15	24.8	24.8	24.8	88	21.8	0	0	---	0.00	30.540 
02:20	24.8	24.8	24.8	88	21.8	0	0	---	0.00	30.540 
02:25	24.8	24.8	24.8	88	21.8	0	0	---	0.00	30.540 
02:30	24.7	24.7	24.7	88	21.7	0	0	---	0.00	30.541 
02:35	24.7	24.7	24.7	88	21.7	0	0	---	0.00	30.541 
02:40	24.5	24.5	24.5	88	21.5	0	0	---	0.00	30.541 
02:45	24.5	24.5	24.5	88	21.5	0	0	---	0.00	30.537 
02:50	24.4	24.4	24.4	88	21.4	0	0	---	0.00	30.537 
02:55	24.2	24.2	24.2	88	21.2	0	0	---	0.00	30.537 
03:00	24.2	24.2	24.2	88	21.2	0	0	---	0.00	30.539 
03:05	24.2	24.2	24.2	88	21.2	0	0	---	0.00	30.539 
03:10	24.2	24.2	24.2	88	21.2	0	0	---	0.00	30.539 
03:15	24.1	24.1	24.1	88	21.1	0	0	---	0.00	30.536 
03:20	24.1	24.1	24.1	89	21.3	0	0	---	0.00	30.536 
03:25	23.9	23.9	23.9	89	21.1	0	0	---	0.00	30.536 
03:30	23.9	23.9	23.9	89	21.1	0	0	---	0.00	30.527 
03:35	23.9	23.9	23.9	89	21.1	0	0	---	0.00	30.527 
03:40	23.8	23.8	23.8	89	21.0	0	0	---	0.00	30.527 
03:45	23.8	23.8	23.8	89	21.0	0	0	---	0.00	30.525 
03:50	23.6	23.6	23.6	89	20.8	0	0	---	0.00	30.525 
03:55	23.6	23.6	23.6	89	20.8	0	0	---	0.00	30.525 
04:00	23.6	23.6	23.6	89	20.8	0	0	---	0.00	30.529 
04:05	23.6	23.6	23.6	89	20.8	0	0	---	0.00	30.529 
04:10	23.6	23.6	23.6	89	20.8	0	0	---	0.00	30.529 
04:15	23.5	23.5	23.5	89	20.7	0	0	---	0.00	30.533 
04:20	23.3	23.3	23.3	89	20.5	0	0	---	0.00	30.533 
04:25	23.3	23.3	23.3	89	20.5	0	0	---	0.00	30.533 
04:30	23.2	23.2	23.2	89	20.4	0	0	---	0.00	30.534 
04:35	23.0	23.0	23.0	89	20.3	0	0	---	0.00	30.534 
04:40	23.0	23.0	23.0	89	20.3	0	0	---	0.00	30.534 
04:45	22.9	22.9	22.9	89	20.2	0	0	---	0.00	30.533 
04:50	22.9	22.9	22.9	89	20.2	0	0	---	0.00	30.533 
04:55	22.7	22.7	22.7	89	20.0	0	0	---	0.00	30.533 
05:00	22.5	22.5	22.5	89	19.8	0	0	---	0.00	30.531 
05:05	22.5	22.5	22.5	89	19.8	0	0	---	0.00	30.531 
05:10	22.5	22.5	22.5	90	20.0	0	0	---	0.00	30.531 
05:15	22.5	22.5	22.5	90	20.0	0	0	---	0.00	30.532 
05:20	22.5	22.5	22.5	90	20.0	0	0	---	0.00	30.532 
05:25	22.4	22.4	22.4	90	19.9	0	0	---	0.00	30.532 
05:30	22.2	22.2	22.2	90	19.7	0	0	---	0.00	30.528 
05:35	22.2	22.2	22.2	90	19.7	0	0	---	0.00	30.528 
05:40	22.2	22.2	22.2	90	19.7	0	0	---	0.00	30.528 
05:45	22.2	22.2	22.2	90	19.7	0	0	---	0.00	30.529 
05:50	22.2	22.2	22.2	90	19.7	0	0	---	0.00	30.529 
05:55	22.2	22.2	22.2	90	19.7	0	0	---	0.00	30.529 
06:00	22.1	22.1	22.1	90	19.6	0	0	---	0.00	30.519 
06:05	22.1	22.1	22.1	90	19.6	0	0	---	0.00	30.519 
06:10	21.9	21.9	21.9	90	19.4	0	0	---	0.00	30.519 
06:15	21.9	21.9	21.9	90	19.4	0	0	---	0.00	30.528 
06:20	21.8	21.8	21.8	90	19.3	0	0	---	0.00	30.528 
06:25	21.8	21.8	21.8	90	19.3	0	0	---	0.00	30.528 
06:30	21.6	21.6	21.6	90	19.1	0	0	---	0.00	30.531 
06:35	21.8	21.8	21.8	90	19.3	0	0	---	0.00	30.531 
06:40	21.6	21.6	21.6	90	19.1	0	0	---	0.00	30.531 
06:45	21.6	21.6	21.6	90	19.1	0	0	---	0.00	30.531 
06:50	21.6	21.6	21.6	90	19.1	0	0	---	0.00	30.531 
06:55	21.6	21.6	21.6	90	19.1	0	0	---	0.00	30.531 
07:00	21.4	21.4	21.4	90	18.9	0	0	---	0.00	30.537 
07:05	21.4	21.4	21.4	90	18.9	0	0	---	0.00	30.537 
07:10	21.6	21.6	21.6	90	19.1	0	0	---	0.00	30.537 
07:15	21.6	21.6	21.6	90	19.1	0	0	---	0.00	30.545 
07:20	21.6	21.6	21.6	90	19.1	0	0	---	0.00	30.545 
07:25	21.8	21.8	21.8	91	19.6	0	0	---	0.00	30.545 
07:30	21.8	21.8	21.8	91	19.6	0	0	---	0.00	30.548 
07:35	21.8	21.8	21.8	91	19.6	0	0	---	0.00	30.548 
07:40	21.8	21.8	21.8	91	19.6	0	0	---	0.00	30.548 
07:45	21.8	21.8	21.8	91	19.6	0	0	---	0.00	30.548 
07:50	21.8	21.8	21.8	91	19.6	0	0	---	0.00	30.548 
07:55	21.9	21.9	21.9	91	19.7	0	0	---	0.00	30.548 
08:00	21.9	21.9	21.9	91	19.7	0	0	---	0.00	30.552 
08:05	21.9	21.9	21.9	91	19.7	0	0	---	0.00	30.552 
08:10	22.1	22.1	22.1	91	19.9	0	0	---	0.00	30.552 
08:15	22.1	22.1	22.1	91	19.9	0	0	---	0.00	30.549 
08:20	22.2	22.2	22.2	91	20.0	0	0	---	0.00	30.549 
08:25	22.4	22.4	22.4	91	20.2	0	0	---	0.00	30.549 
08:30	22.5	22.5	22.5	91	20.3	0	0	---	0.00	30.550 
08:35	22.7	22.7	22.7	91	20.5	0	0	---	0.00	30.550 
08:40	23.0	23.0	23.0	92	21.0	0	0	---	0.00	30.550 
08:45	23.3	23.3	23.3	92	21.3	0	0	---	0.00	30.553 
08:50	23.8	23.8	23.8	92	21.8	0	0	---	0.00	30.553 
08:55	24.1	24.1	24.1	92	22.1	0	0	---	0.00	30.553 
09:00	24.8	24.8	24.8	92	22.8	0	1	248	0.00	30.547 
09:05	25.7	25.7	25.7	92	23.7	0	2	248	0.00	30.547 
09:10	26.4	26.4	26.4	92	24.4	1	3	248	0.00	30.547 
09:15	27.0	27.0	27.0	92	25.0	0	2	248	0.00	30.548 
09:20	27.5	27.5	27.5	91	25.2	0	2	248	0.00	30.548 
09:25	27.9	27.9	27.9	91	25.6	1	4	112	0.00	30.548 
09:30	28.4	28.4	28.4	90	25.8	1	3	112	0.00	30.550 
09:35	28.7	28.7	28.7	89	25.9	2	4	112	0.00	30.550 
09:40	29.1	29.1	29.1	87	25.7	2	5	90	0.00	30.550 
09:45	29.5	29.5	29.5	86	25.8	2	5	90	0.00	30.546 
09:50	29.8	29.8	29.8	85	25.9	2	7	90	0.00	30.546 
09:55	30.1	30.1	30.1	85	26.1	1	4	90	0.00	30.546 
10:00	30.4	30.4	30.4	84	26.2	3	6	90	0.00	30.535 
10:05	30.7	30.7	30.7	84	26.4	2	5	90	0.00	30.535 
10:10	31.2	31.2	31.2	84	26.9	2	9	90	0.00	30.535 
10:15	31.6	31.6	31.6	83	27.0	3	5	90	0.00	30.536 
10:20	31.9	28.0	31.9	82	27.0	4	6	90	0.00	30.536 
10:25	32.2	32.2	32.2	82	27.3	3	7	90	0.00	30.536 
10:30	32.5	32.5	32.5	81	27.3	3	8	90	0.00	30.534 
10:35	32.9	32.9	32.9	81	27.7	3	7	90	0.00	30.534 
10:40	33.2	33.2	33.2	81	28.0	3	8	90	0.00	30.534 
10:45	33.7	33.7	33.7	80	28.2	3	6	90	0.00	30.530 
10:50	34.0	34.0	34.0	79	28.2	3	6	90	0.00	30.530 
10:55	34.3	30.7	34.3	78	28.2	4	7	112	0.00	30.530 
11:00	34.4	30.8	34.4	77	27.9	4	9	90	0.00	30.529 
11:05	34.6	31.1	34.6	77	28.1	4	10	90	0.00	30.529 
11:10	34.7	34.7	34.7	78	28.6	3	7	90	0.00	30.529 
11:15	34.9	31.4	34.9	77	28.4	4	10	90	0.00	30.517 
11:20	35.0	31.5	35.0	77	28.5	4	8	90	0.00	30.517 
11:25	35.2	31.8	35.2	76	28.4	4	10	90	0.00	30.517 
11:30	35.2	31.8	35.2	77	28.7	4	7	90	0.00	30.517 
11:35	35.3	35.3	35.3	77	28.8	3	6	112	0.00	30.517 
11:40	35.3	35.3	35.3	76	28.5	3	9	112	0.00	30.517 
11:45	35.3	31.9	35.3	76	28.5	4	9	90	0.00	30.512 
11:50	35.5	32.1	35.5	75	28.4	4	9	90	0.00	30.512 
11:55	35.6	35.6	35.6	76	28.8	3	7	112	0.00	30.512 
12:00	35.6	35.6	35.6	76	28.8	3	7	112	0.00	30.509 
12:05	35.8	35.8	35.8	76	29.0	3	7	112	0.00	30.509 
12:10	35.9	32.6	35.9	75	28.8	4	11	90	0.00	30.509 
12:15	36.0	32.7	36.0	75	28.9	4	12	90	0.00	30.500 
12:20	36.0	32.7	36.0	75	28.9	4	12	90	0.00	30.500 
12:25	36.2	32.9	36.2	75	29.1	4	9	90	0.00	30.500 
12:30	36.3	32.1	36.3	74	28.8	5	11	90	0.00	30.489 
12:35	36.5	32.4	36.5	73	28.7	5	11	112	0.00	30.489 
12:40	36.8	33.6	36.8	73	29.0	4	11	90	0.00	30.489 
12:45	36.9	32.1	36.9	73	29.1	6	11	90	0.00	30.473 
12:50	37.0	33.9	37.0	72	28.8	4	9	112	0.00	30.473 
12:55	37.3	37.3	37.3	73	29.5	3	7	112	0.00	30.473 
13:00	37.8	34.8	37.8	73	29.9	4	9	112	0.00	30.456 
13:05	38.0	34.1	38.0	71	29.4	5	10	90	0.00	30.456 
13:10	38.3	35.4	38.3	71	29.7	4	11	90	0.00	30.456 
13:15	38.2	34.4	38.2	70	29.3	5	11	90	0.00	30.446 
13:20	38.3	38.3	38.3	71	29.7	3	9	90	0.00	30.446 
13:25	38.6	35.7	38.6	70	29.7	4	7	90	0.00	30.446 
13:30	38.5	34.7	38.5	70	29.6	5	10	112	0.00	30.433 
13:35	38.5	38.5	38.5	71	29.9	3	9	90	0.00	30.433 
13:40	38.3	33.7	38.3	70	29.4	6	12	90	0.00	30.433 
13:45	38.3	35.4	38.3	70	29.4	4	10	112	0.00	30.431 
13:50	38.2	34.4	38.2	70	29.3	5	13	90	0.00	30.431 
13:55	38.0	34.1	38.0	71	29.4	5	10	90	0.00	30.431 
14:00	38.0	35.0	38.0	71	29.4	4	9	112	0.00	30.420 
14:05	38.2	35.2	38.2	72	30.0	4	7	112	0.00	30.420 
14:10	38.3	38.3	38.3	73	30.4	2	4	90	0.00	30.420 
14:15	38.3	34.5	38.3	72	30.1	5	10	112	0.00	30.418 
14:20	38.3	38.3	38.3	73	30.4	3	8	112	0.00	30.418 
14:25	38.3	35.4	38.3	73	30.4	4	9	112	0.00	30.418 
14:30	38.3	35.4	38.3	73	30.4	4	8	90	0.00	30.405 
14:35	38.3	34.5	38.3	73	30.4	5	14	90	0.00	30.405 
14:40	38.3	34.5	38.3	74	30.8	5	12	90	0.00	30.405 
14:45	38.3	34.5	38.3	73	30.4	5	11	90	0.00	30.393 
14:50	38.3	38.3	38.3	74	30.8	3	9	90	0.00	30.393 
14:55	38.3	35.4	38.3	74	30.8	4	7	90	0.00	30.393 
15:00	38.5	38.5	38.5	74	30.9	3	7	68	0.00	30.388 
15:05	38.5	35.6	38.5	74	30.9	4	10	90	0.00	30.388 
15:10	38.3	35.4	38.3	73	30.4	4	7	90	0.00	30.388 
15:15	38.3	35.4	38.3	74	30.8	4	7	90	0.00	30.379 
15:20	38.3	35.4	38.3	74	30.8	4	12	90	0.00	30.379 
15:25	38.3	35.4	38.3	73	30.4	4	10	90	0.00	30.379 
15:30	38.3	35.4	38.3	73	30.4	4	7	90	0.00	30.371 
15:35	38.3	35.4	38.3	74	30.8	4	9	90	0.00	30.371 
15:40	38.2	34.4	38.2	74	30.7	5	10	90	0.00	30.371 
15:45	38.2	35.2	38.2	74	30.7	4	9	112	0.00	30.367 
15:50	38.2	35.2	38.2	74	30.7	4	9	112	0.00	30.367 
15:55	38.2	34.4	38.2	73	30.3	5	10	90	0.00	30.367 
16:00	38.2	34.4	38.2	73	30.3	5	9	90	0.00	30.370 
16:05	38.2	35.2	38.2	74	30.7	4	7	90	0.00	30.370 
16:10	38.2	35.2	38.2	74	30.7	4	9	90	0.00	30.370 
16:15	38.0	34.1	38.0	73	30.1	5	9	90	0.00	30.362 
16:20	38.0	35.0	38.0	74	30.5	4	10	90	0.00	30.362 
16:25	37.9	34.0	37.9	73	30.0	5	10	112	0.00	30.362 
16:30	37.9	34.9	37.9	74	30.4	4	10	90	0.00	30.358 
16:35	37.9	34.0	37.9	74	30.4	5	9	90	0.00	30.358 
16:40	37.9	37.9	37.9	74	30.4	3	6	90	0.00	30.358 
16:45	37.8	34.8	37.8	75	30.6	4	7	90	0.00	30.352 
16:50	37.8	34.8	37.8	75	30.6	4	9	90	0.00	30.352 
16:55	37.8	34.8	37.8	76	30.9	4	9	90	0.00	30.352 
17:00	37.8	33.9	37.8	76	30.9	5	11	112	0.00	30.347 
17:05	37.6	34.5	37.6	76	30.7	4	9	90	0.00	30.347 
17:10	37.6	34.5	37.6	76	30.7	4	9	112	0.00	30.347 
17:15	37.6	34.5	37.6	76	30.7	4	7	90	0.00	30.343 
17:20	37.5	34.4	37.5	76	30.6	4	9	90	0.00	30.343 
17:25	37.5	34.4	37.5	76	30.6	4	9	90	0.00	30.343 
17:30	37.3	33.3	37.3	76	30.4	5	11	90	0.00	30.340 
17:35	37.3	34.2	37.3	76	30.4	4	9	90	0.00	30.340 
17:40	37.3	34.2	37.3	76	30.4	4	7	90	0.00	30.340 
17:45	37.2	37.2	37.2	77	30.7	3	7	90	0.00	30.335 
17:50	37.2	37.2	37.2	77	30.7	3	10	90	0.00	30.335 
17:55	37.0	37.0	37.0	78	30.8	3	9	90	0.00	30.335 
18:00	36.9	36.9	36.9	79	31.0	3	7	90	0.00	30.328 
18:05	36.9	33.7	36.9	79	31.0	4	9	90	0.00	30.328 
18:10	36.8	36.8	36.8	80	31.2	3	7	112	0.00	30.328 
18:15	36.8	33.6	36.8	79	30.9	4	10	112	0.00	30.328 
18:20	36.8	36.8	36.8	79	30.9	3	5	90	0.00	30.328 
18:25	36.8	36.8	36.8	79	30.9	3	7	90	0.00	30.328 
18:30	36.8	33.6	36.8	79	30.9	4	7	90	0.00	30.329 
18:35	36.8	36.8	36.8	80	31.2	3	9	90	0.00	30.329 
18:40	36.6	33.4	36.6	81	31.3	4	12	90	0.00	30.329 
18:45	36.5	33.3	36.5	81	31.2	4	7	90	0.00	30.312 
18:50	36.3	36.3	36.3	83	31.6	3	7	112	0.01	30.312 
18:55	36.2	36.2	36.2	83	31.5	3	8	90	0.00	30.312 
19:00	36.2	36.2	36.2	84	31.8	3	7	90	0.00	30.310 
19:05	36.2	32.9	36.2	84	31.8	4	7	112	0.00	30.310 
19:10	36.0	32.7	36.0	84	31.6	4	8	90	0.00	30.310 
19:15	36.0	36.0	36.0	84	31.6	3	7	90	0.00	30.292 
19:20	36.0	31.8	36.0	84	31.6	5	8	90	0.00	30.292 
19:25	36.0	32.7	36.0	84	31.6	4	9	90	0.00	30.292 
19:30	36.0	32.7	36.0	83	31.3	4	6	90	0.00	30.286 
19:35	36.0	36.0	36.0	83	31.3	3	6	90	0.00	30.286 
19:40	36.2	36.2	36.2	83	31.5	3	7	68	0.00	30.286 
19:45	36.2	32.9	36.2	83	31.5	4	9	90	0.00	30.271 
19:50	36.2	32.9	36.2	82	31.2	4	9	90	0.00	30.271 
19:55	36.3	33.0	36.3	81	31.0	4	7	90	0.00	30.271 
20:00	36.3	32.1	36.3	81	31.0	5	11	90	0.00	30.261 
20:05	36.3	33.0	36.3	81	31.0	4	10	90	0.00	30.261 
20:10	36.3	36.3	36.3	82	31.3	3	7	112	0.01	30.261 
20:15	36.2	32.9	36.2	83	31.5	4	11	90	0.01	30.249 
20:20	36.0	36.0	36.0	84	31.6	3	7	90	0.00	30.249 
20:25	35.9	31.7	35.9	84	31.5	5	12	112	0.00	30.249 
20:30	35.9	32.6	35.9	85	31.8	4	10	90	0.00	30.233 
20:35	35.8	31.5	35.8	85	31.7	5	10	90	0.00	30.233 
20:40	35.8	31.5	35.8	85	31.7	5	12	90	0.00	30.233 
20:45	35.9	31.7	35.9	84	31.5	5	12	90	0.00	30.231 
20:50	36.0	32.7	36.0	84	31.6	4	10	90	0.00	30.231 
20:55	36.0	31.8	36.0	84	31.6	5	11	90	0.01	30.231 
21:00	35.9	32.6	35.9	85	31.8	4	8	90	0.00	30.214 
21:05	35.9	31.7	35.9	85	31.8	5	9	90	0.00	30.214 
21:10	35.9	32.6	35.9	85	31.8	4	8	112	0.00	30.214 
21:15	35.9	32.6	35.9	86	32.1	4	8	112	0.00	30.203 
21:20	36.0	32.7	36.0	85	31.9	4	9	90	0.00	30.203 
21:25	36.0	31.8	36.0	85	31.9	5	9	90	0.00	30.203 
21:30	36.0	32.7	36.0	85	31.9	4	10	90	0.00	30.195 
21:35	36.0	32.7	36.0	86	32.2	4	7	90	0.00	30.195 
21:40	35.9	35.9	35.9	86	32.1	3	5	90	0.00	30.195 
21:45	35.9	35.9	35.9	87	32.4	3	10	90	0.01	30.186 
21:50	35.9	32.6	35.9	87	32.4	4	9	90	0.00	30.186 
21:55	35.9	35.9	35.9	87	32.4	3	9	90	0.00	30.186 
22:00	35.9	32.6	35.9	88	32.7	4	8	90	0.01	30.171 
22:05	35.9	35.9	35.9	88	32.7	3	6	90	0.00	30.171 
22:10	35.9	32.6	35.9	88	32.7	4	9	90	0.00	30.171 
22:15	35.9	32.6	35.9	88	32.7	4	11	90	0.00	30.159 
22:20	35.8	31.5	35.8	88	32.6	5	11	90	0.01	30.159 
22:25	35.8	31.5	35.8	88	32.6	5	10	90	0.00	30.159 
22:30	35.8	35.8	35.8	88	32.6	3	8	90	0.00	30.147 
22:35	35.6	31.3	35.6	89	32.7	5	9	90	0.00	30.147 
22:40	35.6	32.2	35.6	89	32.7	4	9	90	0.00	30.147 
22:45	35.5	32.1	35.5	90	32.9	4	9	68	0.01	30.141 
22:50	35.5	32.1	35.5	90	32.9	4	10	90	0.00	30.141 
22:55	35.5	35.5	35.5	90	32.9	3	8	90	0.00	30.141 
23:00	35.5	31.2	35.5	91	33.1	5	9	90	0.00	30.130 
23:05	35.5	32.1	35.5	91	33.1	4	7	90	0.00	30.130 
23:10	35.5	32.1	35.5	91	33.1	4	10	90	0.00	30.130 
23:15	35.5	35.5	35.5	91	33.1	3	6	90	0.00	30.117 
23:20	35.5	35.5	35.5	91	33.1	3	7	90	0.00	30.117 
23:25	35.5	32.1	35.5	91	33.1	4	9	90	0.00	30.117 
23:30	35.5	35.5	35.5	91	33.1	3	5	90	0.00	30.113 
23:35	35.6	32.2	35.6	91	33.2	4	9	90	0.00	30.113 
23:40	35.6	35.6	35.6	90	33.0	3	7	90	0.00	30.113 
23:45	35.6	35.6	35.6	90	33.0	3	6	90	0.00	30.108 
23:50	35.8	35.8	35.8	90	33.2	3	6	90	0.00	30.108 
23:55	35.9	35.9	35.9	90	33.3	3	6	90	0.00	30.108 

CoCoRaHS
IN-AL-39
A2 Web Hosting
Creative Commons License
GoDaddy
search engine by freefind advanced

loaded 2018-11-13 21:44:17 • last modified 2010-11-18 10:43:29
Privacy PolicyDisclaimer
• wx.awcolley.com is powered by PmWiki v.2002016 •
• all content (unless otherwise noted) © 2018 A W Colley